Time;durP1;ratioP1;P1;durP2;ratioP2;P2;SDS_P1;SDS_P2;PMS_P1;PMS_P2;Temp;Humidity;BMP_temperature;BMP_pressure;BME280_temperature;BME280_humidity;BME280_pressure;Samples;Min_cycle;Max_cycle;Signal;HPM_P1;HPM_P2
2023/10/25 00:01:43;;;;;;;;;;;;;;;14.44;52.97;99322.66;4950951;27;98508;-67
2023/10/25 00:04:10;;;;;;;;;;;;;;;14.43;53.03;99322.97;4962367;28;100210;-73
2023/10/25 00:06:36;;;;;;;;;;;;;;;14.44;53.25;99321.84;4945828;27;98251;-67
2023/10/25 00:09:04;;;;;;;;;;;;;;;14.42;53.35;99319.47;4978506;27;98417;-67
2023/10/25 00:11:30;;;;;;;;;;;;;;;14.43;52.95;99320.25;4941310;27;98042;-74
2023/10/25 00:13:58;;;;;;;;;;;;;;;14.43;53.01;99322.97;4961268;27;98142;-74
2023/10/25 00:16:24;;;;;;;;;;;;;;;14.41;53.12;99315.16;4959326;27;99272;-74
2023/10/25 00:18:51;;;;;;;;;;;;;;;14.42;52.96;99313.22;4964802;28;97925;-68
2023/10/25 00:21:17;;;;;;;;;;;;;;;14.40;53.18;99310.84;4976681;27;99046;-67
2023/10/25 00:23:44;;;;;;;;;;;;;;;14.40;52.88;99310.84;4930155;27;98273;-74
2023/10/25 00:26:11;;;;;;;;;;;;;;;14.40;53.39;99320.91;4962847;27;99174;-74
2023/10/25 00:28:38;;;;;;;;;;;;;;;14.38;53.15;99323.13;4950103;27;97913;-68
2023/10/25 00:31:05;;;;;;;;;;;;;;;14.37;53.01;99322.31;4935999;27;98557;-67
2023/10/25 00:33:32;;;;;;;;;;;;;;;14.37;53.02;99332.38;4946810;27;99182;-74
2023/10/25 00:35:58;;;;;;;;;;;;;;;14.36;53.30;99331.59;4945623;28;99530;-68
2023/10/25 00:38:25;;;;;;;;;;;;;;;14.35;53.08;99334.63;4977507;27;99769;-68
2023/10/25 00:40:52;;;;;;;;;;;;;;;14.34;53.38;99335.72;4940546;28;98152;-68
2023/10/25 00:43:20;;;;;;;;;;;;;;;14.33;53.36;99339.56;4929836;27;98199;-74
2023/10/25 00:45:58;;;;;;;;;;;;;;;14.30;53.15;99340.97;4961095;27;98665;-74
2023/10/25 00:48:25;;;;;;;;;;;;;;;14.32;53.06;99335.25;4960777;27;98208;-73
2023/10/25 00:50:52;;;;;;;;;;;;;;;14.30;53.44;99337.47;4942627;27;99538;-67
2023/10/25 00:53:18;;;;;;;;;;;;;;;14.29;53.32;99335.88;4961433;27;98316;-67
2023/10/25 00:55:44;;;;;;;;;;;;;;;14.28;53.41;99340.50;4960847;27;97907;-74
2023/10/25 00:58:11;;;;;;;;;;;;;;;14.28;53.29;99337.81;4947033;27;120526;-67
2023/10/25 01:00:37;;;;;;;;;;;;;;;14.27;52.99;99332.72;4948237;27;98308;-74
2023/10/25 01:03:08;;;;;;;;;;;;;;;14.28;53.49;99342.44;4961642;28;98132;-67
2023/10/25 01:05:35;;;;;;;;;;;;;;;14.27;53.44;99340.84;4939824;27;98211;-74
2023/10/25 01:08:01;;;;;;;;;;;;;;;14.25;53.27;99333.00;4946118;28;98264;-73
2023/10/25 01:10:28;;;;;;;;;;;;;;;14.25;53.38;99341.94;4925590;27;100036;-73
2023/10/25 01:12:54;;;;;;;;;;;;;;;14.25;53.13;99349.28;4930743;28;98372;-73
2023/10/25 01:15:24;;;;;;;;;;;;;;;14.25;53.09;99341.94;4941688;28;98006;-68
2023/10/25 01:17:51;;;;;;;;;;;;;;;14.25;53.28;99341.13;4931131;28;101028;-67
2023/10/25 01:20:20;;;;;;;;;;;;;;;14.25;53.11;99341.13;4923745;28;99649;-68
2023/10/25 01:22:47;;;;;;;;;;;;;;;14.23;53.47;99344.19;4924292;28;98455;-74
2023/10/25 01:25:15;;;;;;;;;;;;;;;14.24;53.39;99340.34;4934736;28;98461;-68
2023/10/25 01:27:41;;;;;;;;;;;;;;;14.24;53.05;99334.94;4930529;28;97990;-68
2023/10/25 01:30:08;;;;;;;;;;;;;;;14.24;53.27;99342.25;4926663;28;98989;-74
2023/10/25 01:32:35;;;;;;;;;;;;;;;14.23;53.27;99340.69;4900762;28;103674;-74
2023/10/25 01:35:01;;;;;;;;;;;;;;;14.23;53.53;99340.69;4899670;28;98008;-67
2023/10/25 01:37:28;;;;;;;;;;;;;;;14.22;53.45;99342.56;4919459;28;98229;-67
2023/10/25 01:39:54;;;;;;;;;;;;;;;14.23;53.21;99332.56;4923230;28;98528;-67
2023/10/25 01:42:23;;;;;;;;;;;;;;;14.23;53.16;99333.34;4922194;28;100077;-66
2023/10/25 01:44:50;;;;;;;;;;;;;;;14.22;53.44;99341.78;4925678;28;98023;-74
2023/10/25 01:47:16;;;;;;;;;;;;;;;14.22;53.27;99345.28;4924876;28;102402;-68
2023/10/25 01:49:43;;;;;;;;;;;;;;;14.22;53.30;99355.31;4939952;28;99832;-74
2023/10/25 01:52:09;;;;;;;;;;;;;;;14.22;53.00;99358.03;4923331;28;98490;-74
2023/10/25 01:54:36;;;;;;;;;;;;;;;14.23;53.40;99351.53;4905627;28;98444;-68
2023/10/25 01:57:03;;;;;;;;;;;;;;;14.22;53.45;99355.31;4912590;28;98971;-67
2023/10/25 01:59:29;;;;;;;;;;;;;;;14.22;53.01;99347.19;4940435;28;100590;-67
2023/10/25 02:01:57;;;;;;;;;;;;;;;14.21;53.08;99351.81;4935612;28;99502;-74
2023/10/25 02:04:23;;;;;;;;;;;;;;;14.22;53.21;99350.69;4937963;28;98726;-67
2023/10/25 02:06:52;;;;;;;;;;;;;;;14.22;53.38;99358.03;4925443;28;98309;-67
2023/10/25 02:09:18;;;;;;;;;;;;;;;14.22;53.35;99358.81;4929116;28;98775;-74
2023/10/25 02:11:45;;;;;;;;;;;;;;;14.22;53.45;99361.53;4921948;28;99789;-74
2023/10/25 02:14:12;;;;;;;;;;;;;;;14.22;53.35;99363.44;4930211;28;99839;-67
2023/10/25 02:16:39;;;;;;;;;;;;;;;14.23;53.00;99365.06;4940452;27;98537;-74
2023/10/25 02:19:06;;;;;;;;;;;;;;;14.23;53.57;99370.50;4941024;27;99433;-74
2023/10/25 02:21:35;;;;;;;;;;;;;;;14.23;53.21;99370.50;4930500;27;99513;-67
2023/10/25 02:24:05;;;;;;;;;;;;;;;14.22;53.37;99372.38;4944864;27;98031;-67
2023/10/25 02:26:32;;;;;;;;;;;;;;;14.22;53.10;99379.72;4978420;27;98142;-67
2023/10/25 02:29:01;;;;;;;;;;;;;;;14.21;52.91;99373.50;4972593;27;98088;-67
2023/10/25 02:31:28;;;;;;;;;;;;;;;14.21;53.40;99376.22;4939111;28;99371;-67
2023/10/25 02:33:54;;;;;;;;;;;;;;;14.20;53.30;99369.19;4945375;27;98312;-74
2023/10/25 02:36:21;;;;;;;;;;;;;;;14.22;53.08;99371.59;4943642;27;98116;-67
2023/10/25 02:38:48;;;;;;;;;;;;;;;14.22;53.17;99372.38;4938654;27;98503;-74
2023/10/25 02:41:15;;;;;;;;;;;;;;;14.22;53.36;99377.00;4957165;28;98129;-74
2023/10/25 02:43:42;;;;;;;;;;;;;;;14.21;53.36;99383.56;4941677;27;98380;-73
2023/10/25 02:46:12;;;;;;;;;;;;;;;14.21;53.03;99389.75;4940454;28;98461;-74
2023/10/25 02:48:39;;;;;;;;;;;;;;;14.21;53.38;99386.25;4944541;28;98142;-73
2023/10/25 02:51:06;;;;;;;;;;;;;;;14.21;53.57;99387.06;4956228;27;98311;-67
2023/10/25 02:53:32;;;;;;;;;;;;;;;14.21;53.23;99386.25;4926871;27;98137;-74
2023/10/25 02:56:02;;;;;;;;;;;;;;;14.22;53.17;99393.25;4944010;27;97986;-73
2023/10/25 02:58:29;;;;;;;;;;;;;;;14.21;53.21;99386.25;4973149;27;99801;-66
2023/10/25 03:00:58;;;;;;;;;;;;;;;14.21;53.17;99388.97;4957009;27;98428;-74
2023/10/25 03:03:28;;;;;;;;;;;;;;;14.21;53.16;99397.09;4943626;27;99029;-73
2023/10/25 03:05:55;;;;;;;;;;;;;;;14.20;53.40;99390.88;4963380;27;97963;-67
2023/10/25 03:08:21;;;;;;;;;;;;;;;14.20;53.50;99395.50;4943186;27;98527;-67
2023/10/25 03:10:48;;;;;;;;;;;;;;;14.19;53.50;99404.75;4935567;28;98350;-73
2023/10/25 03:13:14;;;;;;;;;;;;;;;14.19;53.61;99407.47;4945314;27;97998;-74
2023/10/25 03:15:41;;;;;;;;;;;;;;;14.19;53.37;99407.47;4949161;28;98538;-67
2023/10/25 03:18:08;;;;;;;;;;;;;;;14.19;53.46;99410.19;4945834;27;98016;-74
2023/10/25 03:20:35;;;;;;;;;;;;;;;14.18;53.56;99403.94;4947325;27;98366;-67
2023/10/25 03:23:01;;;;;;;;;;;;;;;14.19;53.24;99412.91;4948679;27;98438;-74
2023/10/25 03:25:28;;;;;;;;;;;;;;;14.18;53.45;99403.16;4951375;27;97863;-67
2023/10/25 03:27:55;;;;;;;;;;;;;;;14.19;53.53;99410.19;4959154;27;99046;-67
2023/10/25 03:30:22;;;;;;;;;;;;;;;14.17;53.40;99420.53;4949204;27;98076;-74
2023/10/25 03:32:48;;;;;;;;;;;;;;;14.18;53.50;99422.13;4938962;27;100179;-73
2023/10/25 03:35:14;;;;;;;;;;;;;;;14.17;53.27;99417.81;4961415;27;98143;-67
2023/10/25 03:37:41;;;;;;;;;;;;;;;14.18;53.14;99422.13;4944786;27;98048;-74
2023/10/25 03:40:10;;;;;;;;;;;;;;;14.17;53.15;99415.91;4963925;27;99069;-67
2023/10/25 03:42:36;;;;;;;;;;;;;;;14.17;53.53;99421.31;4945703;27;98579;-74
2023/10/25 03:45:06;;;;;;;;;;;;;;;14.17;53.18;99420.53;4933364;27;98485;-74
2023/10/25 03:47:37;;;;;;;;;;;;;;;14.17;53.47;99420.53;4975258;27;98339;-67
2023/10/25 03:50:04;;;;;;;;;;;;;;;14.15;53.34;99414.63;4946854;27;98603;-74
2023/10/25 03:52:31;;;;;;;;;;;;;;;14.15;53.19;99411.94;4964009;27;98162;-74
2023/10/25 03:54:59;;;;;;;;;;;;;;;14.16;53.59;99416.22;4948905;27;99307;-74
2023/10/25 03:57:26;;;;;;;;;;;;;;;14.15;53.23;99420.06;4944234;27;103205;-75
2023/10/25 03:59:53;;;;;;;;;;;;;;;14.14;53.50;99419.25;4984612;27;98675;-75
2023/10/25 04:02:20;;;;;;;;;;;;;;;14.14;53.10;99416.53;4983814;27;98348;-75
2023/10/25 04:04:47;;;;;;;;;;;;;;;14.15;53.56;99417.34;4978597;27;98478;-75
2023/10/25 04:07:14;;;;;;;;;;;;;;;14.14;53.52;99418.44;4990583;27;98133;-68
2023/10/25 04:09:41;;;;;;;;;;;;;;;14.13;53.12;99427.69;5000988;27;97975;-67
2023/10/25 04:12:12;;;;;;;;;;;;;;;14.13;53.50;99424.97;5015401;27;98624;-68
2023/10/25 04:14:45;;;;;;;;;;;;;;;14.13;53.46;99427.69;4968829;27;98286;-68
2023/10/25 04:17:11;;;;;;;;;;;;;;;14.12;53.12;99421.47;4995012;27;99903;-75
2023/10/25 04:19:41;;;;;;;;;;;;;;;14.11;53.44;99417.19;5007972;27;98235;-67
2023/10/25 04:22:08;;;;;;;;;;;;;;;14.11;53.54;99417.19;4994343;27;98405;-68
2023/10/25 04:24:34;;;;;;;;;;;;;;;14.11;53.60;99419.88;4985419;27;98105;-75
2023/10/25 04:27:01;;;;;;;;;;;;;;;14.10;53.62;99426.41;4996986;27;98494;-75
2023/10/25 04:29:28;;;;;;;;;;;;;;;14.09;53.31;99424.81;4983999;27;101421;-67
2023/10/25 04:31:55;;;;;;;;;;;;;;;14.08;53.63;99417.81;4999601;27;98247;-68
2023/10/25 04:34:21;;;;;;;;;;;;;;;14.08;53.47;99420.50;4999425;27;98928;-75
2023/10/25 04:36:48;;;;;;;;;;;;;;;14.06;53.44;99414.59;4980134;27;98213;-75
2023/10/25 04:39:14;;;;;;;;;;;;;;;14.04;53.21;99414.13;4959934;27;98705;-67
2023/10/25 04:41:41;;;;;;;;;;;;;;;14.05;53.20;99417.63;5000205;27;98454;-67
2023/10/25 04:44:08;;;;;;;;;;;;;;;14.04;53.43;99416.84;4984272;27;98539;-75
2023/10/25 04:46:34;;;;;;;;;;;;;;;14.02;53.43;99408.22;4995155;27;98329;-68
2023/10/25 04:49:01;;;;;;;;;;;;;;;14.01;53.17;99412.03;5013280;27;98439;-68
2023/10/25 04:51:27;;;;;;;;;;;;;;;14.00;53.32;99419.38;4980547;27;98668;-68
2023/10/25 04:53:54;;;;;;;;;;;;;;;13.99;53.55;99408.88;5010380;27;98052;-75
2023/10/25 04:56:23;;;;;;;;;;;;;;;13.97;53.60;99414.59;4997207;27;99220;-67
2023/10/25 04:58:50;;;;;;;;;;;;;;;13.96;53.24;99410.28;4965935;27;97972;-68
2023/10/25 05:01:16;;;;;;;;;;;;;;;13.94;53.57;99409.78;4998073;27;98005;-68
2023/10/25 05:03:45;;;;;;;;;;;;;;;13.93;53.29;99407.41;4971514;27;99854;-75
2023/10/25 05:06:13;;;;;;;;;;;;;;;13.91;53.51;99410.44;4998890;27;98096;-76
2023/10/25 05:08:40;;;;;;;;;;;;;;;13.89;53.67;99409.94;4995970;27;98110;-68
2023/10/25 05:11:06;;;;;;;;;;;;;;;13.87;53.35;99412.19;4987129;27;98888;-75
2023/10/25 05:13:33;;;;;;;;;;;;;;;13.86;53.51;99417.91;4983209;27;98156;-75
2023/10/25 05:16:00;;;;;;;;;;;;;;;13.85;53.26;99416.31;4998075;27;98299;-75
2023/10/25 05:18:27;;;;;;;;;;;;;;;13.82;53.55;99412.31;4993442;27;98039;-75
2023/10/25 05:21:00;;;;;;;;;;;;;;;13.82;53.61;99408.81;4979692;27;98069;-76
2023/10/25 05:23:34;;;;;;;;;;;;;;;13.79;53.57;99409.44;4976919;27;98157;-75
2023/10/25 05:26:01;;;;;;;;;;;;;;;13.78;53.19;99407.84;4996578;27;100286;-68
2023/10/25 05:28:30;;;;;;;;;;;;;;;13.75;53.67;99406.53;4980333;27;98563;-75
2023/10/25 05:30:59;;;;;;;;;;;;;;;13.74;53.57;99404.94;4977293;27;98468;-76
2023/10/25 05:33:26;;;;;;;;;;;;;;;13.71;53.60;99411.00;4988562;27;98282;-75
2023/10/25 05:35:52;;;;;;;;;;;;;;;13.70;53.53;99412.09;4980642;27;98152;-68
2023/10/25 05:38:19;;;;;;;;;;;;;;;13.69;53.35;99408.59;4979203;27;97950;-68
2023/10/25 05:40:47;;;;;;;;;;;;;;;13.68;53.58;99414.34;4984398;27;98844;-68
2023/10/25 05:43:14;;;;;;;;;;;;;;;13.67;53.14;99420.84;4980590;27;98365;-75
2023/10/25 05:45:44;;;;;;;;;;;;;;;13.66;53.48;99417.34;4978970;27;98334;-76
2023/10/25 05:48:15;;;;;;;;;;;;;;;13.66;53.48;99421.97;4976944;27;98361;-75
2023/10/25 05:50:45;;;;;;;;;;;;;;;13.65;53.36;99417.66;4992854;27;99900;-76
2023/10/25 05:53:13;;;;;;;;;;;;;;;13.66;53.30;99420.06;4995119;27;98435;-75
2023/10/25 05:55:40;;;;;;;;;;;;;;;13.67;53.16;99424.34;4991289;27;99943;-68
2023/10/25 05:58:06;;;;;;;;;;;;;;;13.67;53.56;99429.78;4993173;27;98332;-68
2023/10/25 06:00:33;;;;;;;;;;;;;;;13.70;53.22;99442.69;4989617;27;109767;-68
2023/10/25 06:03:00;;;;;;;;;;;;;;;13.72;53.21;99432.34;4978210;27;98068;-76
2023/10/25 06:05:27;;;;;;;;;;;;;;;13.75;53.53;99436.34;4973755;27;98231;-68
2023/10/25 06:07:53;;;;;;;;;;;;;;;13.77;53.25;99434.13;4980399;27;99136;-75
2023/10/25 06:10:20;;;;;;;;;;;;;;;13.80;52.97;99432.72;4975904;27;98312;-68
2023/10/25 06:12:46;;;;;;;;;;;;;;;13.82;53.30;99427.75;4987358;27;98522;-75
2023/10/25 06:15:12;;;;;;;;;;;;;;;13.83;53.33;99445.59;4957972;27;112226;-69
2023/10/25 06:17:39;;;;;;;;;;;;;;;13.83;53.30;99443.69;4994340;27;98270;-68
2023/10/25 06:20:06;;;;;;;;;;;;;;;13.84;53.42;99450.72;4979808;27;98554;-75
2023/10/25 06:22:32;;;;;;;;;;;;;;;13.87;53.41;99450.09;4978244;27;98401;-68
2023/10/25 06:24:59;;;;;;;;;;;;;;;13.91;53.30;99452.97;4957131;27;98055;-75
2023/10/25 06:27:26;;;;;;;;;;;;;;;13.97;53.32;99455.22;4994088;27;99009;-68
2023/10/25 06:29:52;;;;;;;;;;;;;;;14.07;53.19;99448.72;4976578;27;98445;-75
2023/10/25 06:32:19;;;;;;;;;;;;;;;14.06;52.92;99447.13;4960498;27;98085;-75
2023/10/25 06:34:45;;;;;;;;;;;;;;;14.07;52.86;99448.72;4977928;27;99257;-68
2023/10/25 06:37:12;;;;;;;;;;;;;;;14.09;52.93;99448.41;4975521;27;100377;-75
2023/10/25 06:39:38;;;;;;;;;;;;;;;14.10;52.83;99437.25;4976861;27;98211;-76
2023/10/25 06:42:05;;;;;;;;;;;;;;;14.13;53.26;99441.25;4983044;27;98829;-68
2023/10/25 06:44:32;;;;;;;;;;;;;;;14.17;53.16;99436.78;5010848;27;99146;-76
2023/10/25 06:46:58;;;;;;;;;;;;;;;14.19;53.08;99434.56;4992074;27;99363;-68
2023/10/25 06:49:25;;;;;;;;;;;;;;;14.22;52.83;99433.91;4984477;27;97992;-75
2023/10/25 06:51:52;;;;;;;;;;;;;;;14.25;53.19;99446.84;4996121;27;98537;-68
2023/10/25 06:54:18;;;;;;;;;;;;;;;14.28;53.03;99446.22;4985131;27;98126;-68
2023/10/25 06:56:44;;;;;;;;;;;;;;;14.32;52.79;99449.09;4986133;27;100457;-68
2023/10/25 06:59:11;;;;;;;;;;;;;;;14.36;53.03;99447.34;4976055;27;99408;-76
2023/10/25 07:01:41;;;;;;;;;;;;;;;14.40;52.67;99453.72;4995423;27;98206;-68
2023/10/25 07:04:08;;;;;;;;;;;;;;;14.43;52.93;99453.09;4998412;27;98290;-69
2023/10/25 07:06:34;;;;;;;;;;;;;;;14.46;52.96;99457.88;4997228;27;98463;-76
2023/10/25 07:09:01;;;;;;;;;;;;;;;14.52;52.81;99456.66;5009327;27;98152;-68
2023/10/25 07:11:27;;;;;;;;;;;;;;;14.59;52.76;99442.63;4984403;27;98462;-76
2023/10/25 07:13:53;;;;;;;;;;;;;;;14.63;52.79;99449.00;4983873;27;98169;-68
2023/10/25 07:16:19;;;;;;;;;;;;;;;14.61;52.71;99441.16;4988808;27;99258;-76
2023/10/25 07:18:47;;;;;;;;;;;;;;;14.63;52.97;99463.38;4981541;27;97943;-76
2023/10/25 07:21:14;;;;;;;;;;;;;;;14.61;52.66;99462.06;4966839;27;98312;-76
2023/10/25 07:23:40;;;;;;;;;;;;;;;14.61;52.80;99462.88;4977696;27;100104;-75
2023/10/25 07:26:06;;;;;;;;;;;;;;;14.60;52.87;99472.13;4965177;27;127131;-69
2023/10/25 07:28:33;;;;;;;;;;;;;;;14.57;52.83;99472.75;4966657;27;99232;-76
2023/10/25 07:30:59;;;;;;;;;;;;;;;14.56;52.86;99473.88;4986610;27;98500;-69
2023/10/25 07:33:25;;;;;;;;;;;;;;;14.56;52.70;99473.88;4945380;27;98144;-68
2023/10/25 07:35:51;;;;;;;;;;;;;;;14.55;52.94;99483.13;4963258;27;98170;-69
2023/10/25 07:38:18;;;;;;;;;;;;;;;14.55;53.16;99482.34;4978792;27;99601;-68
2023/10/25 07:40:44;;;;;;;;;;;;;;;14.52;53.11;99472.91;4961193;27;98237;-76
2023/10/25 07:43:10;;;;;;;;;;;;;;;14.51;53.19;99471.31;4980868;27;99889;-76
2023/10/25 07:45:37;;;;;;;;;;;;;;;14.49;52.99;99485.19;4977215;27;98617;-76
2023/10/25 07:48:03;;;;;;;;;;;;;;;14.52;52.85;99491.09;4983721;27;98586;-76
2023/10/25 07:50:30;;;;;;;;;;;;;;;14.52;53.26;99488.38;4962595;27;98171;-68
2023/10/25 07:52:57;;;;;;;;;;;;;;;14.57;53.20;99478.19;4946479;27;99023;-76
2023/10/25 07:55:23;;;;;;;;;;;;;;;14.59;53.12;99484.09;4966556;27;99097;-68
2023/10/25 07:57:49;;;;;;;;;;;;;;;14.69;52.73;99486.47;4977903;27;98084;-76
2023/10/25 08:00:16;;;;;;;;;;;;;;;14.82;52.73;99478.53;4976130;27;98350;-68
2023/10/25 08:02:42;;;;;;;;;;;;;;;14.89;52.81;99481.53;4980468;27;98603;-75
2023/10/25 08:05:08;;;;;;;;;;;;;;;14.90;52.91;99475.81;4963903;27;98091;-68
2023/10/25 08:07:36;;;;;;;;;;;;;;;14.97;52.89;99475.31;4957261;27;99522;-67
2023/10/25 08:10:04;;;;;;;;;;;;;;;15.08;52.61;99473.09;4982239;27;98410;-68
2023/10/25 08:12:36;;;;;;;;;;;;;;;15.14;52.69;99469.09;4976178;27;100356;-76
2023/10/25 08:15:03;;;;;;;;;;;;;;;15.23;52.46;99467.94;4978223;27;100352;-75
2023/10/25 08:17:29;;;;;;;;;;;;;;;15.43;52.16;99458.31;4981075;27;99686;-76
2023/10/25 08:19:57;;;;;;;;;;;;;;;15.58;52.21;99458.94;4943968;27;101874;-67
2023/10/25 08:22:24;;;;;;;;;;;;;;;15.73;52.13;99454.94;4963627;27;99903;-76
2023/10/25 08:24:50;;;;;;;;;;;;;;;15.81;51.96;99444.00;4962944;27;98280;-76
2023/10/25 08:27:19;;;;;;;;;;;;;;;15.75;52.41;99452.66;4973163;27;98107;-68
2023/10/25 08:29:46;;;;;;;;;;;;;;;15.84;52.11;99456.94;4946055;27;98642;-77
2023/10/25 08:32:12;;;;;;;;;;;;;;;15.95;52.15;99454.66;4960743;27;99552;-77
2023/10/25 08:34:43;;;;;;;;;;;;;;;16.03;51.97;99450.28;4978282;27;98808;-68
2023/10/25 08:37:09;;;;;;;;;;;;;;;16.42;51.55;99457.25;4945361;27;99927;-77
2023/10/25 08:39:36;;;;;;;;;;;;;;;17.51;50.14;99444.47;4972579;27;98229;-68
2023/10/25 08:42:03;;;;;;;;;;;;;;;17.76;50.28;99440.66;4964856;27;99519;-74
2023/10/25 08:44:32;;;;;;;;;;;;;;;17.81;50.79;99445.13;4976372;27;98478;-68
2023/10/25 08:46:58;;;;;;;;;;;;;;;17.87;50.66;99444.53;4961419;27;99695;-68
2023/10/25 08:49:25;;;;;;;;;;;;;;;17.86;50.85;99450.34;4964625;27;98157;-68
2023/10/25 08:51:51;;;;;;;;;;;;;;;18.08;50.57;99454.56;4950767;27;98468;-76
2023/10/25 08:54:20;;;;;;;;;;;;;;;17.97;51.05;99458.88;4988701;27;98415;-76
2023/10/25 08:56:47;;;;;;;;;;;;;;;17.67;51.64;99453.56;4961882;27;98376;-67
2023/10/25 08:59:13;;;;;;;;;;;;;;;17.45;51.79;99456.72;4959075;27;98945;-67
2023/10/25 09:01:41;;;;;;;;;;;;;;;17.30;51.82;99456.25;4975486;27;98056;-69
2023/10/25 09:04:08;;;;;;;;;;;;;;;17.21;52.17;99460.16;4958512;27;98604;-67
2023/10/25 09:06:36;;;;;;;;;;;;;;;17.22;51.98;99450.88;4962042;27;99462;-67
2023/10/25 09:09:07;;;;;;;;;;;;;;;17.97;51.03;99453.41;4960591;27;98476;-67
2023/10/25 09:11:40;;;;;;;;;;;;;;;20.06;48.39;99438.56;4943950;27;98142;-77
2023/10/25 09:14:07;;;;;;;;;;;;;;;20.60;48.37;99445.28;4934309;27;99977;-68
2023/10/25 09:16:34;;;;;;;;;;;;;;;20.23;49.48;99464.75;4936519;27;98290;-76
2023/10/25 09:19:05;;;;;;;;;;;;;;;20.07;50.08;99461.25;4958582;27;98841;-68
2023/10/25 09:21:32;;;;;;;;;;;;;;;19.90;50.44;99456.94;4961068;27;99663;-66
2023/10/25 09:24:02;;;;;;;;;;;;;;;19.62;50.77;99454.28;4937047;27;101390;-67
2023/10/25 09:26:34;;;;;;;;;;;;;;;19.59;50.90;99455.75;4945226;27;98134;-76
2023/10/25 09:29:00;;;;;;;;;;;;;;;19.60;50.87;99457.34;4944751;27;99019;-67
2023/10/25 09:31:29;;;;;;;;;;;;;;;19.53;50.90;99461.81;4957746;27;98435;-76
2023/10/25 09:34:00;;;;;;;;;;;;;;;19.42;51.08;99467.03;4956934;27;98030;-76
2023/10/25 09:36:27;;;;;;;;;;;;;;;19.24;51.44;99457.56;4945778;27;99070;-76
2023/10/25 09:38:54;;;;;;;;;;;;;;;19.05;51.50;99456.25;4944210;27;98776;-68
2023/10/25 09:41:20;;;;;;;;;;;;;;;18.82;52.01;99456.03;4941078;28;98934;-68
2023/10/25 09:43:51;;;;;;;;;;;;;;;18.64;51.98;99451.97;4929726;28;99075;-67
2023/10/25 09:46:23;;;;;;;;;;;;;;;18.57;52.04;99452.53;4968276;28;99650;-78
2023/10/25 09:48:58;;;;;;;;;;;;;;;20.15;49.68;99445.78;4957165;28;98716;-78
2023/10/25 09:51:30;;;;;;;;;;;;;;;23.48;45.29;99439.94;4981692;27;101055;-78
2023/10/25 09:54:12;;;;;;;;;;;;;;;25.99;43.35;99443.91;4983798;27;98307;-69
2023/10/25 09:56:40;;;;;;;;;;;;;;;28.79;41.38;99450.84;4975937;27;98098;-78
2023/10/25 09:59:12;;;;;;;;;;;;;;;30.44;40.70;99454.69;4939970;28;98664;-78
2023/10/25 10:01:40;;;;;;;;;;;;;;;31.99;40.30;99458.44;4965125;27;98896;-70
2023/10/25 10:04:17;;;;;;;;;;;;;;;30.08;43.48;99449.75;4943746;28;97945;-68
2023/10/25 10:07:08;;;;;;;;;;;;;;;29.13;45.09;99440.94;4939033;27;98731;-77
2023/10/25 10:09:59;;;;;;;;;;;;;;;27.59;47.17;99437.75;4977620;27;98096;-69
2023/10/25 10:12:26;;;;;;;;;;;;;;;26.52;48.29;99429.19;4991285;27;98675;-68
2023/10/25 10:14:52;;;;;;;;;;;;;;;25.60;49.20;99422.56;4972968;27;99338;-68
2023/10/25 10:17:19;;;;;;;;;;;;;;;27.28;46.81;99414.66;4962167;27;98848;-68
2023/10/25 10:19:50;;;;;;;;;;;;;;;31.28;41.73;99421.94;4979070;27;98594;-77
2023/10/25 10:22:18;;;;;;;;;;;;;;;33.02;40.90;99429.75;4977554;27;98401;-70
2023/10/25 10:24:48;;;;;;;;;;;;;;;34.88;39.47;99432.63;4982089;27;98129;-70
2023/10/25 10:27:16;;;;;;;;;;;;;;;35.70;39.72;99425.84;4988164;27;98354;-78
2023/10/25 10:29:43;;;;;;;;;;;;;;;34.00;42.68;99420.66;4976866;27;99253;-70
2023/10/25 10:32:11;;;;;;;;;;;;;;;32.28;44.79;99407.56;4975553;27;99518;-77
2023/10/25 10:34:56;;;;;;;;;;;;;;;30.55;46.87;99399.66;4977185;27;98690;-68
2023/10/25 10:37:24;;;;;;;;;;;;;;;32.01;44.40;99391.94;4954913;27;99012;-77
2023/10/25 10:39:59;;;;;;;;;;;;;;;34.11;41.92;99395.09;4958523;27;98479;-77
2023/10/25 10:42:33;;;;;;;;;;;;;;;34.44;42.19;99387.91;4987676;27;98191;-77
2023/10/25 10:45:00;;;;;;;;;;;;;;;34.00;43.18;99384.31;4975990;27;98045;-69
2023/10/25 10:47:51;;;;;;;;;;;;;;;32.69;45.39;99379.69;4951641;27;98672;-77
2023/10/25 10:50:19;;;;;;;;;;;;;;;32.88;44.89;99374.34;4965462;27;98063;-69
2023/10/25 10:52:48;;;;;;;;;;;;;;;32.61;45.59;99366.41;4976889;27;98622;-77
2023/10/25 10:55:21;;;;;;;;;;;;;;;32.16;46.23;99364.47;4958197;27;98826;-68
2023/10/25 10:57:48;;;;;;;;;;;;;;;31.84;46.37;99356.97;4963179;27;98258;-77
2023/10/25 11:00:19;;;;;;;;;;;;;;;31.44;46.82;99357.19;4986223;27;98259;-77
2023/10/25 11:02:48;;;;;;;;;;;;;;;31.33;46.94;99345.53;4975197;27;98173;-76
2023/10/25 11:05:17;;;;;;;;;;;;;;;31.35;46.88;99349.44;4977834;27;98252;-78
2023/10/25 11:07:44;;;;;;;;;;;;;;;30.64;47.71;99343.47;4957370;27;98522;-77
2023/10/25 11:10:10;;;;;;;;;;;;;;;29.90;48.72;99340.19;4993227;27;98464;-68
2023/10/25 11:12:39;;;;;;;;;;;;;;;29.57;48.87;99334.44;4962636;27;98542;-67
2023/10/25 11:15:07;;;;;;;;;;;;;;;29.63;48.35;99329.94;4949420;27;98181;-68
2023/10/25 11:17:34;;;;;;;;;;;;;;;29.48;48.71;99326.63;4986384;27;100056;-77
2023/10/25 11:20:02;;;;;;;;;;;;;;;29.16;49.06;99324.41;4929492;27;100106;-68
2023/10/25 11:22:31;;;;;;;;;;;;;;;28.86;49.27;99328.75;4988932;27;99581;-77
2023/10/25 11:24:58;;;;;;;;;;;;;;;28.43;49.43;99331.34;4993846;27;98198;-77
2023/10/25 11:27:31;;;;;;;;;;;;;;;28.28;49.44;99327.13;4953622;28;98142;-68
2023/10/25 11:29:58;;;;;;;;;;;;;;;28.10;49.42;99319.84;4967222;28;101491;-77
2023/10/25 11:32:24;;;;;;;;;;;;;;;27.98;49.83;99314.84;4955177;27;98528;-75
2023/10/25 11:34:56;;;;;;;;;;;;;;;27.89;49.68;99306.22;4964684;27;99741;-77
2023/10/25 11:37:22;;;;;;;;;;;;;;;27.84;49.71;99309.44;4937439;27;98275;-76
2023/10/25 11:40:01;;;;;;;;;;;;;;;27.70;49.33;99310.34;4964323;28;98425;-68
2023/10/25 11:42:31;;;;;;;;;;;;;;;27.45;49.90;99304.28;4978157;27;98386;-76
2023/10/25 11:45:00;;;;;;;;;;;;;;;27.13;50.06;99303.34;4954613;27;99475;-77
2023/10/25 11:47:27;;;;;;;;;;;;;;;26.84;50.45;99302.75;4966512;27;100194;-77
2023/10/25 11:49:57;;;;;;;;;;;;;;;26.55;50.66;99295.81;4971005;27;98379;-77
2023/10/25 11:52:28;;;;;;;;;;;;;;;26.23;50.62;99295.94;4942607;28;98410;-67
2023/10/25 11:54:55;;;;;;;;;;;;;;;25.93;51.03;99298.00;4953904;28;98117;-77
2023/10/25 11:57:23;;;;;;;;;;;;;;;25.66;51.08;99291.31;4940855;27;100192;-77
2023/10/25 11:59:50;;;;;;;;;;;;;;;25.38;51.16;99281.91;4978886;27;98061;-67
2023/10/25 12:02:17;;;;;;;;;;;;;;;25.13;51.19;99292.94;4960962;27;98782;-77
2023/10/25 12:04:45;;;;;;;;;;;;;;;24.91;51.45;99285.81;4977945;27;97887;-77
2023/10/25 12:07:11;;;;;;;;;;;;;;;24.68;51.60;99292.50;4958493;27;99441;-77
2023/10/25 12:09:39;;;;;;;;;;;;;;;24.50;51.31;99288.88;4941046;27;99024;-68
2023/10/25 12:12:06;;;;;;;;;;;;;;;24.33;51.72;99289.59;4947423;27;98239;-77
2023/10/25 12:14:33;;;;;;;;;;;;;;;24.19;51.42;99282.06;4952809;27;98896;-77
2023/10/25 12:16:59;;;;;;;;;;;;;;;24.07;51.40;99277.69;4943294;28;98267;-76
2023/10/25 12:19:26;;;;;;;;;;;;;;;23.98;51.53;99272.53;4959813;27;98627;-68
2023/10/25 12:21:57;;;;;;;;;;;;;;;23.86;51.33;99269.34;4947089;27;98563;-68
2023/10/25 12:24:26;;;;;;;;;;;;;;;23.72;51.39;99257.06;4961274;27;99989;-68
2023/10/25 12:26:52;;;;;;;;;;;;;;;23.62;51.39;99256.97;4958017;27;98250;-67
2023/10/25 12:29:19;;;;;;;;;;;;;;;23.52;51.67;99259.28;4947386;27;98424;-77
2023/10/25 12:31:46;;;;;;;;;;;;;;;23.41;51.75;99258.41;4961944;27;98217;-77
2023/10/25 12:34:13;;;;;;;;;;;;;;;23.31;51.46;99258.38;4924195;27;98407;-67
2023/10/25 12:36:39;;;;;;;;;;;;;;;23.20;51.73;99250.03;4961065;27;98149;-77
2023/10/25 12:39:06;;;;;;;;;;;;;;;23.10;51.52;99250.72;4954423;27;98187;-67
2023/10/25 12:41:33;;;;;;;;;;;;;;;22.99;51.73;99253.38;4959728;27;98627;-67
2023/10/25 12:44:02;;;;;;;;;;;;;;;22.88;51.65;99241.50;4959166;27;98080;-77
2023/10/25 12:46:28;;;;;;;;;;;;;;;22.78;51.80;99241.00;4939442;27;98087;-77
2023/10/25 12:48:56;;;;;;;;;;;;;;;22.71;51.54;99235.44;4931187;28;98271;-67